Time;durP1;ratioP1;P1;durP2;ratioP2;P2;SDS_P1;SDS_P2;PMS_P1;PMS_P2;Temp;Humidity;BMP_temperature;BMP_pressure;BME280_temperature;BME280_humidity;BME280_pressure;Samples;Min_cycle;Max_cycle;Signal;HPM_P1;HPM_P2
2021/09/06 00:02:08;;;;;;;5.13;3.10;;;;;;;13.20;89.49;101567.16;2615194;36;20034;-53
2021/09/06 00:04:37;;;;;;;5.22;2.80;;;;;;;13.16;89.40;101567.03;2616628;31;20030;-54
2021/09/06 00:07:04;;;;;;;5.15;2.97;;;;;;;13.06;89.99;101565.03;2617420;31;20038;-56
2021/09/06 00:09:32;;;;;;;6.22;3.00;;;;;;;12.98;91.46;101560.50;2615394;31;20053;-56
2021/09/06 00:11:59;;;;;;;7.63;3.67;;;;;;;12.94;92.29;101561.28;2615826;31;20029;-57
2021/09/06 00:14:26;;;;;;;5.35;3.20;;;;;;;12.85;91.92;101550.72;2617892;36;20030;-55
2021/09/06 00:16:54;;;;;;;5.57;3.17;;;;;;;12.81;92.68;101545.44;2620309;36;20038;-54
2021/09/06 00:19:23;;;;;;;8.02;3.40;;;;;;;12.78;92.47;101553.03;2617206;31;20037;-58
2021/09/06 00:21:51;;;;;;;5.20;3.47;;;;;;;12.71;93.63;101557.09;2616020;31;20031;-57
2021/09/06 00:24:18;;;;;;;4.97;3.00;;;;;;;12.64;94.63;101552.63;2615694;36;20458;-56
2021/09/06 00:26:45;;;;;;;5.05;3.10;;;;;;;12.59;94.94;101557.63;2615475;36;20049;-57
2021/09/06 00:29:12;;;;;;;4.78;3.25;;;;;;;12.55;95.49;101560.03;2615498;36;20030;-54
2021/09/06 00:31:40;;;;;;;4.95;3.17;;;;;;;12.60;94.00;101551.66;2621591;36;20038;-57
2021/09/06 00:34:07;;;;;;;5.18;3.05;;;;;;;12.59;94.46;101552.47;2615319;36;20029;-57
2021/09/06 00:36:35;;;;;;;5.10;3.30;;;;;;;12.53;95.70;101554.00;2615128;36;20650;-51
2021/09/06 00:39:02;;;;;;;4.55;3.40;;;;;;;12.44;96.14;101554.56;2615173;36;20593;-55
2021/09/06 00:41:29;;;;;;;6.57;4.00;;;;;;;12.44;96.47;101550.31;2616089;31;20571;-55
2021/09/06 00:43:56;;;;;;;5.25;3.30;;;;;;;12.36;96.89;101556.88;2615517;36;20042;-54
2021/09/06 00:46:24;;;;;;;5.45;3.58;;;;;;;12.32;97.91;101555.03;2617461;31;20552;-55
2021/09/06 00:48:51;;;;;;;5.35;3.33;;;;;;;12.28;98.49;101552.31;2615169;36;20035;-55
2021/09/06 00:51:18;;;;;;;3.92;2.90;;;;;;;12.58;95.14;101552.44;2616164;31;20430;-55
2021/09/06 00:53:46;;;;;;;4.60;3.25;;;;;;;12.39;97.00;101546.72;2615951;31;20558;-53
2021/09/06 00:56:13;;;;;;;5.95;3.50;;;;;;;12.31;97.73;101549.88;2615178;36;20038;-58
2021/09/06 00:58:40;;;;;;;5.82;3.67;;;;;;;12.29;97.92;101549.78;2615259;36;20030;-57
2021/09/06 01:01:07;;;;;;;5.80;3.55;;;;;;;12.23;99.25;101547.91;2615135;36;20041;-54
2021/09/06 01:03:35;;;;;;;6.50;3.53;;;;;;;12.14;100.00;101551.88;2616673;31;20041;-56
2021/09/06 01:06:02;;;;;;;5.60;3.50;;;;;;;12.15;100.00;101548.47;2615294;36;20030;-55
2021/09/06 01:08:30;;;;;;;5.82;3.13;;;;;;;12.12;99.67;101545.81;2614824;36;20582;-53
2021/09/06 01:10:57;;;;;;;4.68;3.00;;;;;;;12.10;100.00;101550.00;2615412;36;20124;-54
2021/09/06 01:13:24;;;;;;;4.35;3.25;;;;;;;12.15;100.00;101544.19;2615855;31;20057;-58
2021/09/06 01:15:52;;;;;;;4.85;3.10;;;;;;;12.15;99.32;101549.34;2615009;36;20030;-56
2021/09/06 01:18:19;;;;;;;4.70;3.38;;;;;;;12.17;99.34;101539.13;2614876;36;20038;-55
2021/09/06 01:20:46;;;;;;;4.82;3.72;;;;;;;12.15;99.01;101551.03;2615225;36;20042;-56
2021/09/06 01:23:13;;;;;;;5.93;3.53;;;;;;;12.10;100.00;101550.00;2615402;31;20042;-53
2021/09/06 01:25:40;;;;;;;5.35;4.05;;;;;;;12.04;100.00;101542.13;2615300;36;20061;-55
2021/09/06 01:28:08;;;;;;;6.05;3.47;;;;;;;11.95;100.00;101542.69;2615654;31;20485;-57
2021/09/06 01:30:37;;;;;;;7.32;3.65;;;;;;;11.88;100.00;101545.88;2615124;31;20046;-55
2021/09/06 01:33:04;;;;;;;6.68;3.40;;;;;;;11.78;100.00;101549.75;2615036;36;20035;-55
2021/09/06 01:35:31;;;;;;;6.93;3.55;;;;;;;11.69;100.00;101542.66;2616539;31;20034;-53
2021/09/06 01:37:59;;;;;;;6.90;3.25;;;;;;;11.70;100.00;101546.94;2614680;36;20042;-52
2021/09/06 01:40:26;;;;;;;6.45;4.03;;;;;;;11.67;100.00;101539.13;2615751;31;20448;-54
2021/09/06 01:42:54;;;;;;;5.43;3.83;;;;;;;11.69;100.00;101537.50;2615067;36;20034;-56
2021/09/06 01:45:21;;;;;;;5.47;3.40;;;;;;;11.69;100.00;101540.06;2614834;36;20041;-55
2021/09/06 01:47:48;;;;;;;5.82;3.20;;;;;;;11.64;100.00;101540.72;2615044;31;20057;-53
2021/09/06 01:50:15;;;;;;;6.13;3.67;;;;;;;11.64;100.00;101544.16;2615034;31;20030;-55
2021/09/06 01:52:42;;;;;;;4.07;3.03;;;;;;;11.64;100.00;101543.28;2633080;36;20038;-57
2021/09/06 01:55:10;;;;;;;5.22;3.70;;;;;;;11.58;100.00;101541.38;2616070;31;20396;-54
2021/09/06 01:57:37;;;;;;;5.50;3.42;;;;;;;11.55;100.00;101537.81;2614999;36;20072;-53
2021/09/06 02:00:05;;;;;;;5.35;3.85;;;;;;;11.57;100.00;101543.91;2614991;36;20031;-54
2021/09/06 02:02:32;;;;;;;4.40;3.45;;;;;;;11.48;100.00;101549.56;2616810;31;20038;-55
2021/09/06 02:04:59;;;;;;;5.70;3.58;;;;;;;11.39;100.00;101552.69;2615043;36;20613;-50
2021/09/06 02:07:26;;;;;;;5.82;3.92;;;;;;;11.36;100.00;101549.13;2614677;36;20464;-54
2021/09/06 02:09:53;;;;;;;10.85;3.80;;;;;;;11.26;100.00;101542.78;2615724;31;20061;-52
2021/09/06 02:12:20;;;;;;;6.55;4.20;;;;;;;11.26;100.00;101550.47;2615029;36;20034;-51
2021/09/06 02:14:47;;;;;;;6.20;4.43;;;;;;;11.21;100.00;101532.38;2615085;36;20038;-56
2021/09/06 02:17:14;;;;;;;7.57;4.10;;;;;;;11.18;100.00;101541.63;2615032;36;20570;-56
2021/09/06 02:19:41;;;;;;;8.40;4.22;;;;;;;11.12;100.00;101544.84;2615316;36;20034;-57
2021/09/06 02:22:09;;;;;;;5.25;4.25;;;;;;;11.12;100.00;101549.09;2615209;36;20098;-52
2021/09/06 02:24:36;;;;;;;5.13;3.97;;;;;;;11.10;100.00;101543.94;2615489;36;20519;-54
2021/09/06 02:27:03;;;;;;;4.97;3.72;;;;;;;11.09;100.00;101551.53;2616032;31;20464;-55
2021/09/06 02:29:30;;;;;;;6.55;4.20;;;;;;;11.04;100.00;101551.38;2614849;36;20683;-55
2021/09/06 02:31:57;;;;;;;6.68;4.60;;;;;;;11.04;100.00;101553.06;2614819;36;20027;-56
2021/09/06 02:34:24;;;;;;;4.40;4.00;;;;;;;11.05;100.00;101557.41;2615006;36;20590;-51
2021/09/06 02:36:52;;;;;;;5.00;4.07;;;;;;;11.03;100.00;101559.00;2614849;36;20031;-54
2021/09/06 02:39:19;;;;;;;6.72;4.57;;;;;;;11.02;100.00;101552.16;2615027;31;20057;-52
2021/09/06 02:41:46;;;;;;;5.85;4.20;;;;;;;11.02;100.00;101552.16;2614808;36;20035;-57
2021/09/06 02:44:13;;;;;;;6.63;4.47;;;;;;;10.97;100.00;101551.97;2614939;36;20057;-57
2021/09/06 02:46:41;;;;;;;6.65;4.13;;;;;;;10.94;100.00;101546.72;2617487;36;20125;-50
2021/09/06 02:49:08;;;;;;;5.55;4.53;;;;;;;10.93;100.00;101548.41;2614952;31;20026;-55
2021/09/06 02:51:35;;;;;;;7.57;4.70;;;;;;;10.90;100.00;101553.41;2615153;36;20065;-52
2021/09/06 02:54:02;;;;;;;7.47;4.55;;;;;;;10.86;100.00;101543.88;2615163;31;20037;-54
2021/09/06 02:56:29;;;;;;;7.35;4.65;;;;;;;10.79;100.00;101544.44;2615782;31;20030;-54
2021/09/06 02:58:56;;;;;;;5.38;4.65;;;;;;;10.73;100.00;101544.22;2615191;31;20022;-58
2021/09/06 03:01:23;;;;;;;6.15;4.55;;;;;;;10.69;100.00;101537.22;2614854;36;20037;-54
2021/09/06 03:03:51;;;;;;;6.50;4.53;;;;;;;10.66;100.00;101537.97;2615059;36;20022;-56
2021/09/06 03:06:18;;;;;;;6.68;4.85;;;;;;;10.61;100.00;101541.19;2614415;36;20041;-56
2021/09/06 03:08:45;;;;;;;7.53;4.72;;;;;;;10.57;100.00;101544.44;2614496;36;20453;-57
2021/09/06 03:11:12;;;;;;;6.40;4.22;;;;;;;10.52;100.00;101544.25;2615170;36;20065;-56
2021/09/06 03:13:39;;;;;;;4.97;4.47;;;;;;;10.53;100.00;101543.44;2614608;31;20464;-56
2021/09/06 03:16:06;;;;;;;6.22;4.30;;;;;;;10.44;100.00;101535.38;2615553;31;20169;-58
2021/09/06 03:18:34;;;;;;;9.00;4.97;;;;;;;10.43;100.00;101543.88;2616964;31;20038;-52
2021/09/06 03:21:01;;;;;;;6.03;4.80;;;;;;;10.42;100.00;101540.44;2615720;36;20034;-52
2021/09/06 03:23:28;;;;;;;6.47;4.82;;;;;;;10.35;100.00;101540.13;2615447;36;20034;-53
2021/09/06 03:25:55;;;;;;;10.63;5.07;;;;;;;10.29;100.00;101542.44;2615780;36;20031;-54
2021/09/06 03:28:22;;;;;;;5.38;4.57;;;;;;;10.27;100.00;101541.53;2616436;31;20482;-55
2021/09/06 03:30:49;;;;;;;7.35;5.00;;;;;;;10.22;100.00;101533.63;2615728;36;20030;-56
2021/09/06 03:33:16;;;;;;;8.80;5.47;;;;;;;10.25;100.00;101538.03;2616136;31;20597;-56
2021/09/06 03:35:44;;;;;;;8.15;5.28;;;;;;;10.25;100.00;101538.03;2615844;36;20042;-52
2021/09/06 03:38:12;;;;;;;10.55;5.65;;;;;;;10.19;100.00;101539.47;2615736;36;20026;-54
2021/09/06 03:40:40;;;;;;;8.65;5.30;;;;;;;10.11;100.00;101533.16;2616079;31;20046;-55
2021/09/06 03:43:07;;;;;;;8.95;5.47;;;;;;;10.09;100.00;101537.38;2615570;31;20038;-53
2021/09/06 03:45:37;;;;;;;7.13;5.38;;;;;;;10.13;100.00;101536.69;2615748;31;20031;-58
2021/09/06 03:48:04;;;;;;;10.50;5.93;;;;;;;10.12;100.00;101528.94;2615290;36;20034;-57
2021/09/06 03:50:31;;;;;;;6.95;4.68;;;;;;;10.05;100.00;101522.69;2615588;36;20037;-56
2021/09/06 03:52:58;;;;;;;7.20;4.72;;;;;;;10.07;100.00;101530.44;2615759;36;20026;-54
2021/09/06 03:55:26;;;;;;;8.18;5.53;;;;;;;10.04;100.00;101526.06;2616357;31;20038;-54
2021/09/06 03:57:53;;;;;;;10.85;5.50;;;;;;;10.04;100.00;101527.75;2615498;36;20301;-57
2021/09/06 04:00:20;;;;;;;7.55;5.03;;;;;;;10.04;100.00;101525.19;2616709;31;20396;-54
2021/09/06 04:02:47;;;;;;;7.45;5.72;;;;;;;9.99;100.00;101531.81;2616365;31;20611;-56
2021/09/06 04:05:14;;;;;;;8.20;5.28;;;;;;;9.91;100.00;101527.25;2616557;31;20516;-54
2021/09/06 04:07:41;;;;;;;8.85;5.68;;;;;;;9.91;100.00;101527.25;2620563;31;20571;-53
2021/09/06 04:10:10;;;;;;;7.85;5.13;;;;;;;9.84;100.00;101517.53;2615622;36;20030;-56
2021/09/06 04:12:37;;;;;;;9.65;5.53;;;;;;;9.79;100.00;101524.16;2617188;31;20061;-57
2021/09/06 04:15:05;;;;;;;13.20;7.00;;;;;;;9.74;100.00;101519.66;2617425;31;20035;-57
2021/09/06 04:17:33;;;;;;;6.75;5.75;;;;;;;9.70;100.00;101521.22;2627271;36;20099;-48
2021/09/06 04:20:00;;;;;;;9.13;5.45;;;;;;;9.66;100.00;101519.34;2615552;36;20037;-46
2021/09/06 04:22:27;;;;;;;7.78;5.03;;;;;;;9.64;100.00;101524.38;2615232;36;20031;-49
2021/09/06 04:24:54;;;;;;;7.68;5.30;;;;;;;9.56;100.00;101525.72;2616138;31;20031;-51
2021/09/06 04:27:21;;;;;;;7.40;4.93;;;;;;;9.49;100.00;101528.84;2614595;31;20030;-50
2021/09/06 04:29:48;;;;;;;6.72;5.47;;;;;;;9.47;100.00;101533.00;2614761;36;20038;-48
2021/09/06 04:32:16;;;;;;;9.98;5.70;;;;;;;9.41;100.00;101528.50;2615514;31;20045;-49
2021/09/06 04:34:43;;;;;;;7.90;5.78;;;;;;;9.37;100.00;101524.06;2615768;31;20038;-48
2021/09/06 04:37:10;;;;;;;9.70;5.80;;;;;;;9.39;100.00;101529.25;2615204;36;20026;-46
2021/09/06 04:39:37;;;;;;;8.20;6.07;;;;;;;9.33;100.00;101534.97;2615621;31;20065;-49
2021/09/06 04:42:04;;;;;;;8.05;5.70;;;;;;;9.36;100.00;101540.22;2615136;36;20030;-50
2021/09/06 04:44:32;;;;;;;9.98;6.75;;;;;;;9.42;100.00;101537.03;2615377;31;20602;-49
2021/09/06 04:46:59;;;;;;;7.70;5.97;;;;;;;9.47;100.00;101537.25;2633579;36;20065;-55
2021/09/06 04:49:26;;;;;;;10.13;6.13;;;;;;;9.45;100.00;101539.75;2632748;36;20038;-50
2021/09/06 04:51:54;;;;;;;7.50;6.32;;;;;;;9.41;100.00;101543.84;2616453;31;20042;-46
2021/09/06 04:54:21;;;;;;;8.43;5.70;;;;;;;9.39;100.00;101545.47;2615524;31;20558;-48
2021/09/06 04:56:48;;;;;;;8.73;6.53;;;;;;;9.46;100.00;101549.16;2615558;31;20038;-48
2021/09/06 04:59:16;;;;;;;9.18;6.72;;;;;;;9.47;100.00;101550.03;2615689;36;20034;-46
2021/09/06 05:01:43;;;;;;;10.63;6.43;;;;;;;9.55;100.00;101551.25;2615316;36;20046;-53
2021/09/06 05:04:11;;;;;;;9.43;6.28;;;;;;;9.58;100.00;101554.81;2615822;31;20046;-50
2021/09/06 05:06:38;;;;;;;7.40;6.07;;;;;;;9.62;100.00;101553.28;2616276;31;20374;-47
2021/09/06 05:09:05;;;;;;;8.65;6.72;;;;;;;9.68;100.00;101554.41;2614847;36;20668;-48
2021/09/06 05:11:32;;;;;;;7.38;6.07;;;;;;;9.73;100.00;101556.28;2615307;31;20031;-51
2021/09/06 05:13:59;;;;;;;11.48;6.18;;;;;;;9.74;100.00;101558.91;2615029;36;20034;-47
2021/09/06 05:16:26;;;;;;;8.07;6.20;;;;;;;9.75;100.00;101565.75;2615842;31;20090;-48
2021/09/06 05:18:54;;;;;;;11.38;6.25;;;;;;;9.79;100.00;101566.78;2614974;36;20030;-49
2021/09/06 05:21:21;;;;;;;9.95;6.53;;;;;;;9.84;100.00;101566.16;2616124;31;20042;-48
2021/09/06 05:23:48;;;;;;;8.00;6.00;;;;;;;9.89;100.00;101572.38;2617590;31;20030;-51
2021/09/06 05:26:15;;;;;;;6.75;6.05;;;;;;;9.96;100.00;101568.38;2615424;36;20065;-48
2021/09/06 05:28:43;;;;;;;16.65;6.30;;;;;;;9.96;100.00;101573.50;2615193;31;20043;-46
2021/09/06 05:31:10;;;;;;;8.05;6.28;;;;;;;10.04;100.00;101572.13;2614941;31;20034;-46
2021/09/06 05:33:37;;;;;;;8.95;5.95;;;;;;;10.14;100.00;101569.13;2614998;36;20051;-46
2021/09/06 05:36:05;;;;;;;10.38;6.38;;;;;;;10.23;100.00;101575.47;2615087;31;20042;-47
2021/09/06 05:38:32;;;;;;;9.63;6.50;;;;;;;10.34;100.00;101567.41;2614873;31;20030;-50
2021/09/06 05:40:59;;;;;;;9.02;5.63;;;;;;;10.36;100.00;101573.50;2614925;36;20031;-50
2021/09/06 05:43:27;;;;;;;7.70;5.60;;;;;;;10.44;100.00;101577.25;2614713;36;20049;-46
2021/09/06 05:45:54;;;;;;;8.02;5.45;;;;;;;10.51;100.00;101580.06;2615029;31;20582;-46
2021/09/06 05:48:21;;;;;;;6.05;4.85;;;;;;;10.57;100.00;101580.28;2614239;36;20041;-50
2021/09/06 05:50:48;;;;;;;7.65;5.28;;;;;;;10.62;100.00;101579.66;2614692;36;20057;-49
2021/09/06 05:53:15;;;;;;;6.60;4.90;;;;;;;10.69;100.00;101584.22;2613724;36;20030;-51
2021/09/06 05:55:44;;;;;;;8.90;5.57;;;;;;;10.78;100.00;101578.56;2613794;36;20292;-52
2021/09/06 05:58:11;;;;;;;7.03;4.63;;;;;;;10.83;100.00;101577.06;2616872;31;20466;-50
2021/09/06 06:00:38;;;;;;;8.90;5.72;;;;;;;10.96;100.00;101573.28;2614361;31;20569;-52
2021/09/06 06:03:05;;;;;;;7.95;5.43;;;;;;;11.08;100.00;101581.44;2614619;36;20068;-49
2021/09/06 10:38:15;;;;;;;10.90;9.52;;;;;;;35.81;26.54;101652.66;2614084;36;20038;-50
2021/09/06 10:40:44;;;;;;;12.38;9.82;;;;;;;37.53;24.73;101670.28;2614464;36;20073;-49
2021/09/06 10:43:17;;;;;;;11.55;9.82;;;;;;;35.72;27.04;101661.25;2614214;36;20034;-50
2021/09/06 10:45:47;;;;;;;10.55;9.15;;;;;;;37.99;25.14;101670.44;2613517;36;20034;-52
2021/09/06 10:48:25;;;;;;;10.35;9.15;;;;;;;39.39;21.90;101676.63;2613974;31;20038;-48
2021/09/06 10:50:53;;;;;;;10.15;9.20;;;;;;;36.75;25.64;101665.97;2578146;31;2004787;-51
2021/09/06 10:53:23;;;;;;;10.35;9.40;;;;;;;35.62;27.23;101663.69;2613350;36;20042;-52
2021/09/06 10:55:57;;;;;;;10.55;9.45;;;;;;;37.60;26.17;101661.72;2614301;31;20037;-50
2021/09/06 10:58:26;;;;;;;10.65;8.80;;;;;;;37.05;25.62;101660.31;2613348;36;20077;-52
2021/09/06 11:00:59;;;;;;;14.77;9.27;;;;;;;33.98;27.41;101650.59;2614709;31;20038;-50
2021/09/06 11:03:38;;;;;;;10.38;9.27;;;;;;;38.00;24.22;101663.31;2614890;36;20041;-49
2021/09/06 11:06:06;;;;;;;10.85;9.82;;;;;;;36.70;25.39;101655.63;2615920;31;20031;-51
2021/09/06 11:08:36;;;;;;;12.00;9.77;;;;;;;36.80;24.10;101657.66;2615559;31;20038;-50
2021/09/06 11:11:07;;;;;;;13.10;9.88;;;;;;;36.93;25.14;101645.16;2614685;36;20037;-52
2021/09/06 11:13:42;;;;;;;15.15;10.60;;;;;;;31.74;30.00;101640.13;2614699;36;20031;-52
2021/09/06 11:16:12;;;;;;;12.23;9.43;;;;;;;31.99;30.41;101630.13;2614647;36;20065;-50
2021/09/06 11:18:45;;;;;;;10.65;9.10;;;;;;;36.52;26.46;101643.53;2614132;36;20030;-49
2021/09/06 11:21:13;;;;;;;16.58;9.80;;;;;;;35.82;24.63;101637.53;2615079;31;20035;-49
2021/09/06 11:23:43;;;;;;;12.27;10.48;;;;;;;35.75;26.81;101637.09;2614570;36;20023;-50
2021/09/06 11:26:23;;;;;;;16.17;10.32;;;;;;;38.09;23.84;101641.19;2614952;31;20041;-54
2021/09/06 11:28:51;;;;;;;10.65;9.52;;;;;;;40.09;23.21;101648.53;2578046;36;2004259;-50
2021/09/06 11:31:20;;;;;;;11.77;9.70;;;;;;;40.04;21.14;101645.34;2613831;36;20882;-50
2021/09/06 11:33:59;;;;;;;11.88;9.70;;;;;;;37.18;24.63;101633.59;2614613;31;20035;-51
2021/09/06 11:36:27;;;;;;;14.20;9.43;;;;;;;41.78;19.31;101653.41;2577410;31;2004494;-50
2021/09/06 11:38:54;;;;;;;11.65;10.43;;;;;;;38.40;21.40;101639.72;2614429;36;20034;-52
2021/09/06 11:41:22;;;;;;;10.38;9.10;;;;;;;41.75;19.06;101645.63;2615457;31;20040;-51
2021/09/06 11:43:50;;;;;;;13.70;8.68;;;;;;;39.63;21.32;101637.06;2614990;31;20569;-51
2021/09/06 11:46:18;;;;;;;10.70;8.68;;;;;;;41.43;19.61;101647.56;2615873;31;20035;-52
2021/09/06 11:48:51;;;;;;;12.40;10.07;;;;;;;38.06;21.23;101636.94;2615925;31;20111;-49
2021/09/06 11:51:18;;;;;;;10.70;9.68;;;;;;;38.76;21.37;101638.72;2615616;36;20038;-49
2021/09/06 11:54:00;;;;;;;11.45;9.25;;;;;;;38.18;22.74;101636.00;2615529;31;20065;-53
2021/09/06 11:56:29;;;;;;;11.75;9.43;;;;;;;36.51;22.98;101630.28;2579279;36;2004118;-49
2021/09/06 11:59:02;;;;;;;12.23;9.43;;;;;;;36.65;24.73;101633.69;2615587;31;20038;-51
2021/09/06 12:01:29;;;;;;;10.20;9.00;;;;;;;37.11;23.07;101630.47;2615191;36;20030;-52
2021/09/06 12:04:04;;;;;;;11.60;8.43;;;;;;;36.39;23.44;101630.16;2614913;36;20035;-49
2021/09/06 12:06:32;;;;;;;9.90;8.75;;;;;;;37.21;23.29;101628.03;2615686;36;20426;-50
2021/09/06 12:09:01;;;;;;;9.40;8.45;;;;;;;37.51;22.36;101634.81;2615264;31;20593;-47
2021/09/06 12:11:49;;;;;;;9.70;8.85;;;;;;;36.87;22.63;101630.38;2616000;36;20430;-52
2021/09/06 12:14:17;;;;;;;9.45;8.43;;;;;;;34.97;24.91;101620.72;2615301;36;20034;-52
2021/09/06 12:16:44;;;;;;;11.20;7.80;;;;;;;33.54;27.93;101617.59;2617009;31;20034;-52
2021/09/06 12:19:21;;;;;;;10.27;8.98;;;;;;;35.35;26.13;101623.63;2615303;36;20593;-50
2021/09/06 12:21:49;;;;;;;9.07;8.27;;;;;;;34.00;28.44;101609.69;2616183;31;20046;-49
2021/09/06 12:24:24;;;;;;;10.18;8.25;;;;;;;34.01;26.59;101611.38;2616532;31;20034;-51
2021/09/06 12:26:52;;;;;;;10.18;9.18;;;;;;;33.91;27.40;101613.69;2578326;36;2004434;-48
2021/09/06 12:29:33;;;;;;;10.73;9.13;;;;;;;35.62;25.91;101623.69;2615887;31;20041;-48
2021/09/06 12:32:02;;;;;;;9.23;8.27;;;;;;;35.45;25.64;101621.22;2618882;36;20029;-53
2021/09/06 12:34:31;;;;;;;10.18;8.55;;;;;;;34.28;25.71;101614.22;2622011;31;20140;-56
2021/09/06 12:36:59;;;;;;;10.77;9.05;;;;;;;30.89;28.94;101606.09;2617938;36;20038;-55
2021/09/06 12:39:28;;;;;;;10.52;7.97;;;;;;;32.27;30.05;101618.13;2615514;31;20580;-54
2021/09/06 12:41:56;;;;;;;9.98;8.98;;;;;;;34.17;26.40;101616.69;2615811;36;20031;-51
2021/09/06 12:44:23;;;;;;;10.50;8.50;;;;;;;31.20;29.11;101610.88;2616099;31;20031;-55
2021/09/06 12:46:51;;;;;;;10.85;8.93;;;;;;;31.03;28.84;101601.06;2614493;36;20125;-53
2021/09/06 12:49:18;;;;;;;11.65;8.48;;;;;;;32.17;28.28;101613.31;2616319;31;20554;-52
2021/09/06 12:51:45;;;;;;;9.68;8.18;;;;;;;34.24;25.57;101615.34;2616268;31;20118;-53
2021/09/06 12:54:13;;;;;;;9.50;8.25;;;;;;;34.60;24.25;101608.81;2616753;31;20022;-48
2021/09/06 12:56:40;;;;;;;9.80;8.80;;;;;;;36.61;22.97;101618.00;2615112;36;20041;-50
2021/09/06 12:59:08;;;;;;;11.13;8.43;;;;;;;35.75;24.25;101607.75;2616159;31;20420;-49
2021/09/06 13:01:35;;;;;;;9.80;8.80;;;;;;;36.28;24.43;101610.47;2615653;31;20039;-51
2021/09/06 13:04:03;;;;;;;9.48;7.70;;;;;;;35.40;24.44;101602.88;2615223;36;20029;-49
2021/09/06 13:06:31;;;;;;;9.93;8.73;;;;;;;35.56;24.21;101599.28;2615015;36;20037;-51
2021/09/06 13:08:58;;;;;;;13.88;9.45;;;;;;;33.08;27.33;101598.84;2616259;31;20600;-48
2021/09/06 13:11:26;;;;;;;10.95;8.88;;;;;;;35.81;25.31;101609.16;2614900;36;20038;-49
2021/09/06 13:13:57;;;;;;;9.98;8.45;;;;;;;37.72;22.82;101603.81;2615078;31;20601;-52
2021/09/06 13:16:25;;;;;;;9.32;7.57;;;;;;;38.36;21.72;101600.78;2613807;31;20054;-49
2021/09/06 13:18:52;;;;;;;9.63;8.48;;;;;;;36.38;23.53;101598.25;2613770;36;20585;-50
2021/09/06 13:21:19;;;;;;;9.32;7.18;;;;;;;36.78;23.37;101595.47;2613832;36;20038;-51
2021/09/06 13:23:46;;;;;;;9.15;8.23;;;;;;;35.92;24.40;101591.50;2614835;31;20185;-53
2021/09/06 13:26:14;;;;;;;9.70;8.15;;;;;;;37.68;21.70;101587.16;2614348;31;20575;-51
2021/09/06 13:28:43;;;;;;;9.60;7.30;;;;;;;37.15;23.14;101591.91;2613557;36;20043;-48
2021/09/06 13:31:12;;;;;;;10.48;8.00;;;;;;;35.03;24.32;101582.22;2614811;31;20030;-51
2021/09/06 13:33:40;;;;;;;11.82;8.60;;;;;;;34.12;25.31;101577.06;2615004;31;20066;-51
2021/09/06 13:36:07;;;;;;;9.05;8.15;;;;;;;34.89;24.54;101573.25;2614684;31;20034;-51
2021/09/06 13:38:34;;;;;;;11.13;8.35;;;;;;;35.51;25.21;101580.91;2613742;36;20423;-49
2021/09/06 13:41:01;;;;;;;8.95;8.05;;;;;;;38.45;22.05;101584.84;2614194;36;20466;-51
2021/09/06 13:43:29;;;;;;;11.27;7.78;;;;;;;38.91;20.58;101591.97;2614059;36;20550;-51
2021/09/06 13:45:56;;;;;;;8.95;8.13;;;;;;;39.45;19.78;101582.28;2614867;31;20447;-53
2021/09/06 13:48:24;;;;;;;8.60;7.78;;;;;;;39.19;21.07;101587.91;2614416;31;20035;-50
2021/09/06 13:50:51;;;;;;;11.15;8.05;;;;;;;35.51;25.00;101574.75;2614244;36;20030;-49
2021/09/06 13:53:18;;;;;;;12.30;8.68;;;;;;;37.02;21.56;101590.22;2615098;36;20057;-53
2021/09/06 13:55:45;;;;;;;9.73;8.82;;;;;;;35.63;24.13;101588.09;2615116;36;20042;-52
2021/09/06 13:58:12;;;;;;;9.45;8.50;;;;;;;37.78;21.50;101591.81;2615343;31;20033;-49
2021/09/06 14:00:39;;;;;;;9.38;8.40;;;;;;;36.58;23.20;101592.38;2616132;31;20027;-51
2021/09/06 14:03:07;;;;;;;11.60;8.43;;;;;;;35.89;24.17;101580.19;2615829;31;20471;-54
2021/09/06 14:05:34;;;;;;;11.52;9.95;;;;;;;35.21;24.04;101581.03;2615042;36;20049;-55
2021/09/06 14:08:01;;;;;;;11.77;8.95;;;;;;;33.60;26.05;101571.22;2615072;31;20030;-55
2021/09/06 14:10:28;;;;;;;10.32;9.23;;;;;;;35.11;24.39;101578.13;2615105;36;20030;-51
2021/09/06 14:12:56;;;;;;;10.30;8.52;;;;;;;32.65;26.50;101577.25;2615041;36;20061;-53
2021/09/06 14:15:23;;;;;;;10.20;9.20;;;;;;;32.17;28.66;101570.88;2614977;36;20653;-53
2021/09/06 14:17:50;;;;;;;9.55;8.55;;;;;;;31.25;27.93;101570.97;2615466;31;20034;-54
2021/09/06 14:20:17;;;;;;;9.98;8.10;;;;;;;30.64;30.71;101569.25;2615574;31;20105;-55
2021/09/06 14:22:45;;;;;;;10.93;7.93;;;;;;;30.09;32.89;101567.22;2615759;31;20058;-55
2021/09/06 14:25:12;;;;;;;13.10;8.30;;;;;;;30.05;30.64;101562.97;2615959;31;20822;-56
2021/09/06 14:27:40;;;;;;;9.27;7.90;;;;;;;28.44;34.95;101568.22;2615256;31;20030;-54
2021/09/06 14:30:07;;;;;;;12.20;8.57;;;;;;;28.18;34.45;101567.28;2615032;31;20030;-56
2021/09/06 14:32:35;;;;;;;11.35;8.73;;;;;;;27.74;34.86;101555.59;2615141;36;20637;-55
2021/09/06 14:35:03;;;;;;;9.88;7.70;;;;;;;28.45;33.91;101562.03;2615664;31;20553;-52
2021/09/06 14:37:30;;;;;;;12.98;7.93;;;;;;;27.85;34.20;101553.47;2614971;31;20038;-52
2021/09/06 14:39:57;;;;;;;9.43;7.38;;;;;;;28.92;33.24;101562.94;2614919;36;20030;-53
2021/09/06 14:42:24;;;;;;;11.15;7.70;;;;;;;27.85;37.02;101556.09;2614832;36;20577;-56
2021/09/06 14:44:51;;;;;;;10.57;8.63;;;;;;;28.67;33.60;101557.72;2615185;31;20034;-54
2021/09/06 14:47:20;;;;;;;13.60;8.13;;;;;;;28.28;34.54;101557.31;2614902;31;20023;-51
2021/09/06 14:49:47;;;;;;;10.85;8.45;;;;;;;27.49;34.11;101552.84;2615037;36;20030;-55
2021/09/06 14:52:14;;;;;;;8.93;8.05;;;;;;;27.28;36.41;101559.63;2615348;36;20450;-55
2021/09/06 14:54:41;;;;;;;9.73;8.55;;;;;;;26.89;37.03;101551.94;2614900;36;20073;-55
2021/09/06 14:57:09;;;;;;;11.45;8.48;;;;;;;27.22;36.58;101551.03;2615957;31;20765;-55
2021/09/06 14:59:36;;;;;;;10.10;8.52;;;;;;;26.28;37.97;101548.34;2615278;36;20783;-53
2021/09/06 15:02:03;;;;;;;13.32;9.48;;;;;;;26.80;38.21;101546.97;2615626;31;20042;-51
2021/09/06 15:04:31;;;;;;;11.98;9.02;;;;;;;26.88;38.31;101554.63;2615588;31;20022;-54
2021/09/06 15:06:59;;;;;;;9.07;8.18;;;;;;;28.22;36.65;101554.03;2614858;36;20082;-51
2021/09/06 15:09:26;;;;;;;15.60;8.45;;;;;;;28.08;36.99;101557.13;2614562;36;20042;-54
2021/09/06 15:11:54;;;;;;;10.18;8.10;;;;;;;28.44;34.22;101552.41;2615758;31;20023;-52
2021/09/06 15:14:23;;;;;;;11.30;8.38;;;;;;;28.47;36.54;101557.56;2614691;36;20030;-57
2021/09/06 15:16:52;;;;;;;10.38;9.20;;;;;;;27.06;39.07;101548.84;2614763;36;20042;-56
2021/09/06 15:19:21;;;;;;;11.55;8.20;;;;;;;26.65;41.03;101547.41;2612736;36;20057;-53
2021/09/06 15:21:50;;;;;;;10.77;9.43;;;;;;;26.50;40.16;101547.81;2615238;31;20041;-51
2021/09/06 15:24:17;;;;;;;14.25;9.98;;;;;;;26.37;41.04;101548.09;2614130;36;20034;-57
2021/09/06 15:26:50;;;;;;;11.15;8.57;;;;;;;26.22;40.54;101545.88;2614016;31;21015;-53
2021/09/06 15:29:18;;;;;;;13.45;9.38;;;;;;;25.54;40.93;101541.38;2615461;31;20428;-53
2021/09/06 15:31:49;;;;;;;12.55;9.77;;;;;;;25.42;42.33;101543.41;2614710;36;20038;-55
2021/09/06 15:34:19;;;;;;;11.43;8.98;;;;;;;25.46;42.26;101538.06;2615151;31;20057;-55
2021/09/06 15:36:50;;;;;;;10.90;8.70;;;;;;;25.33;43.54;101537.50;2614664;36;20589;-56
2021/09/06 15:39:20;;;;;;;12.00;9.65;;;;;;;25.18;43.58;101532.56;2613811;31;20035;-53
2021/09/06 15:41:52;;;;;;;11.68;8.90;;;;;;;24.64;47.32;101538.88;2615631;31;20434;-54
2021/09/06 15:44:22;;;;;;;15.20;9.57;;;;;;;24.79;46.06;101536.84;2615120;36;20444;-55
2021/09/06 15:46:52;;;;;;;10.90;8.57;;;;;;;24.12;45.80;101546.75;2614632;36;20038;-57
2021/09/06 15:49:21;;;;;;;14.60;9.23;;;;;;;24.21;47.60;101548.34;2613327;36;20060;-55
2021/09/06 15:51:48;;;;;;;12.68;9.32;;;;;;;24.34;47.28;101544.63;2614552;31;20065;-57
2021/09/06 15:54:16;;;;;;;11.55;9.75;;;;;;;24.53;47.16;101539.97;2614986;36;20597;-55
2021/09/06 15:56:43;;;;;;;13.02;9.30;;;;;;;24.32;46.80;101546.44;2614817;36;20030;-55